Time;durP1;ratioP1;P1;durP2;ratioP2;P2;SDS_P1;SDS_P2;PMS_P1;PMS_P2;Temp;Humidity;BMP_temperature;BMP_pressure;BME280_temperature;BME280_humidity;BME280_pressure;Samples;Min_cycle;Max_cycle;Signal;HPM_P1;HPM_P2
2021/09/07 00:01:14;;;;;;;6.63;4.32;;;;;;;19.79;44.83;100710.94;5114621;28;20183;-78
2021/09/07 00:03:41;;;;;;;9.52;4.53;;;;;;;19.84;44.54;100713.22;5116791;28;20545;-78
2021/09/07 00:06:08;;;;;;;7.95;4.85;;;;;;;19.73;44.62;100706.16;5116863;28;20074;-77
2021/09/07 00:08:35;;;;;;;8.70;4.57;;;;;;;19.66;44.30;100709.44;5116048;28;20555;-77
2021/09/07 00:11:02;;;;;;;7.13;4.25;;;;;;;19.73;44.51;100705.31;5116469;28;20470;-78
2021/09/07 00:13:30;;;;;;;5.28;4.43;;;;;;;19.67;44.22;100705.81;5116200;28;20058;-77
2021/09/07 00:15:58;;;;;;;9.50;5.25;;;;;;;19.67;44.13;100706.66;5117981;28;20050;-77
2021/09/07 00:18:26;;;;;;;8.30;4.45;;;;;;;19.70;44.43;100703.75;5117674;28;20393;-77
2021/09/07 00:20:53;;;;;;;5.88;3.85;;;;;;;19.63;44.35;100702.56;5118203;28;20119;-77
2021/09/07 00:23:19;;;;;;;5.07;4.10;;;;;;;19.57;44.59;100700.38;5116001;28;20093;-77
2021/09/07 00:25:46;;;;;;;4.30;3.90;;;;;;;19.55;45.13;100703.16;5116185;28;20047;-77
2021/09/07 00:28:13;;;;;;;8.45;5.00;;;;;;;19.57;44.96;100701.22;5116171;28;20051;-77
2021/09/07 00:30:40;;;;;;;5.85;4.60;;;;;;;19.52;45.41;100691.97;5115882;28;20035;-76
2021/09/07 00:33:08;;;;;;;4.40;4.00;;;;;;;19.53;45.42;100691.00;5116289;28;20085;-77
2021/09/07 00:35:35;;;;;;;7.07;4.18;;;;;;;19.51;45.24;100693.78;5115255;28;20500;-76
2021/09/07 00:38:03;;;;;;;5.00;4.47;;;;;;;19.54;45.26;100696.16;5115746;28;20047;-78
2021/09/07 00:40:30;;;;;;;7.07;4.63;;;;;;;19.57;45.41;100690.66;5114916;28;20040;-77
2021/09/07 00:42:57;;;;;;;6.25;4.10;;;;;;;19.64;45.14;100696.31;5098287;28;20712;-78
2021/09/07 00:45:24;;;;;;;6.63;4.63;;;;;;;19.64;44.87;100698.94;5094543;28;20097;-77
2021/09/07 00:47:51;;;;;;;8.93;4.50;;;;;;;19.57;45.30;100692.47;5107584;28;20044;-78
2021/09/07 00:50:17;;;;;;;5.10;4.07;;;;;;;19.65;45.63;100691.84;5113942;28;20040;-77
2021/09/07 00:52:44;;;;;;;7.60;4.55;;;;;;;19.55;45.39;100691.75;5102035;28;20048;-77
2021/09/07 00:55:11;;;;;;;6.65;4.95;;;;;;;19.59;45.41;100691.38;5115885;28;20413;-77
2021/09/07 00:57:40;;;;;;;4.45;4.05;;;;;;;19.53;45.45;100688.38;5114435;27;20039;-76
2021/09/07 01:00:07;;;;;;;5.88;4.75;;;;;;;19.54;45.25;100692.69;5115537;28;20042;-76
2021/09/07 01:02:36;;;;;;;7.85;4.28;;;;;;;19.49;45.51;100686.94;5115214;28;20106;-76
2021/09/07 01:05:04;;;;;;;4.30;3.90;;;;;;;19.52;45.27;100689.34;5115171;28;20085;-77
2021/09/07 01:07:33;;;;;;;6.65;4.20;;;;;;;19.47;45.68;100680.94;5110649;28;20490;-78
2021/09/07 01:10:06;;;;;;;7.72;5.03;;;;;;;19.52;46.15;100687.53;5099895;28;20047;-78
2021/09/07 01:12:35;;;;;;;5.57;4.80;;;;;;;19.55;44.85;100689.09;5114805;28;20075;-78
2021/09/07 01:15:05;;;;;;;5.00;4.50;;;;;;;19.57;45.45;100688.00;5115132;28;20054;-78
2021/09/07 01:17:34;;;;;;;9.25;4.80;;;;;;;19.56;44.79;100688.13;5114731;28;20051;-78
2021/09/07 01:20:01;;;;;;;6.18;3.60;;;;;;;19.55;45.39;100684.66;5115308;28;20401;-77
2021/09/07 01:22:27;;;;;;;7.72;4.32;;;;;;;19.55;45.92;100681.19;5115337;28;20137;-77
2021/09/07 01:24:54;;;;;;;8.43;3.78;;;;;;;19.53;45.80;100673.34;5114952;28;20043;-77
2021/09/07 01:27:22;;;;;;;5.50;4.68;;;;;;;19.51;45.62;100679.72;5115019;28;20046;-74
2021/09/07 01:29:50;;;;;;;6.40;4.38;;;;;;;19.43;45.64;100674.22;5102743;28;20105;-77
2021/09/07 01:32:18;;;;;;;8.00;4.93;;;;;;;19.34;45.50;100667.88;5112629;28;20039;-77
2021/09/07 01:34:45;;;;;;;4.43;3.75;;;;;;;19.26;46.19;100671.09;5114425;28;20070;-77
2021/09/07 01:37:12;;;;;;;4.88;4.03;;;;;;;19.35;47.31;100669.53;5101642;28;20075;-77
2021/09/07 01:39:39;;;;;;;8.05;4.88;;;;;;;19.28;46.39;100671.84;5094155;28;20047;-76
2021/09/07 01:42:06;;;;;;;9.77;5.20;;;;;;;19.40;46.10;100667.38;5110125;28;20043;-76
2021/09/07 01:44:34;;;;;;;5.18;4.68;;;;;;;19.41;46.10;100658.47;5111208;28;20085;-78
2021/09/07 01:47:01;;;;;;;5.85;4.30;;;;;;;19.45;45.50;100664.38;5114409;27;20044;-77
2021/09/07 01:49:27;;;;;;;6.20;4.28;;;;;;;19.61;45.95;100664.84;5114549;28;20436;-77
2021/09/07 01:51:54;;;;;;;6.53;4.45;;;;;;;19.53;45.43;100662.75;5113680;28;20070;-77
2021/09/07 01:54:21;;;;;;;6.55;4.75;;;;;;;19.53;46.10;100664.56;5113507;28;20382;-76
2021/09/07 01:56:49;;;;;;;6.65;4.63;;;;;;;19.50;45.51;100664.84;5113781;28;20047;-76
2021/09/07 01:59:16;;;;;;;5.15;4.65;;;;;;;19.47;45.46;100657.97;5112426;28;20040;-77
2021/09/07 02:01:44;;;;;;;6.72;4.10;;;;;;;19.46;46.08;100666.88;5114202;28;20044;-77
2021/09/07 02:04:11;;;;;;;8.55;5.18;;;;;;;19.48;45.99;100656.16;5114684;28;20051;-76
2021/09/07 02:06:39;;;;;;;8.23;4.50;;;;;;;19.45;45.50;100659.91;5114056;28;20047;-77
2021/09/07 02:09:07;;;;;;;5.10;4.32;;;;;;;19.37;45.22;100665.81;5113842;28;20058;-77
2021/09/07 02:11:34;;;;;;;8.32;4.95;;;;;;;19.29;45.35;100665.59;5113163;28;20506;-76
2021/09/07 02:14:01;;;;;;;5.75;4.03;;;;;;;19.20;45.88;100665.47;5112455;28;20074;-76
2021/09/07 02:16:28;;;;;;;8.35;4.25;;;;;;;19.09;46.46;100659.25;5114058;28;20044;-75
2021/09/07 02:18:57;;;;;;;5.13;4.63;;;;;;;18.95;47.21;100661.28;5098193;28;20399;-76
2021/09/07 02:21:24;;;;;;;8.40;5.75;;;;;;;18.55;48.88;100669.63;5113359;28;20035;-77
2021/09/07 02:23:51;;;;;;;11.20;5.18;;;;;;;18.11;50.50;100676.47;5113965;28;20048;-75
2021/09/07 02:26:18;;;;;;;9.98;6.32;;;;;;;17.69;53.19;100680.44;5130989;28;20051;-76
2021/09/07 02:28:46;;;;;;;8.57;6.18;;;;;;;17.64;53.02;100686.06;5132867;28;20049;-76
2021/09/07 02:31:14;;;;;;;11.88;8.35;;;;;;;17.36;54.31;100686.34;5130468;28;20044;-76
2021/09/07 02:33:41;;;;;;;11.23;9.55;;;;;;;17.55;53.88;100684.06;5125276;28;20485;-76
2021/09/07 02:36:08;;;;;;;17.70;10.93;;;;;;;17.48;54.42;100685.47;5129758;28;20045;-78
2021/09/07 02:38:36;;;;;;;15.38;10.00;;;;;;;17.57;53.97;100686.59;5131548;28;20055;-76
2021/09/07 02:41:06;;;;;;;18.23;9.70;;;;;;;17.51;54.10;100685.25;5131649;28;20046;-75
2021/09/07 02:43:38;;;;;;;12.70;8.68;;;;;;;17.52;54.14;100685.16;5132435;28;20126;-78
2021/09/07 02:46:05;;;;;;;24.98;7.60;;;;;;;17.48;54.24;100677.56;5131926;28;20046;-77
2021/09/07 02:48:32;;;;;;;11.77;8.35;;;;;;;17.48;54.21;100685.47;5133041;28;20043;-77
2021/09/07 02:51:00;;;;;;;12.85;8.32;;;;;;;17.45;54.48;100680.41;5128778;28;20108;-76
2021/09/07 02:53:27;;;;;;;14.68;9.38;;;;;;;17.44;54.44;100681.38;5112546;28;20549;-75
2021/09/07 02:55:54;;;;;;;15.15;9.15;;;;;;;17.43;54.61;100687.59;5096008;28;20696;-77
2021/09/07 02:58:21;;;;;;;15.35;9.52;;;;;;;17.36;54.72;100678.44;5113313;28;20031;-76
2021/09/07 03:00:48;;;;;;;9.85;8.00;;;;;;;17.20;55.46;100678.69;5113922;28;20401;-77
2021/09/07 03:03:16;;;;;;;11.63;6.70;;;;;;;17.14;55.20;100679.13;5114183;28;20043;-78
2021/09/07 03:05:44;;;;;;;14.80;7.15;;;;;;;17.20;55.05;100681.31;5113762;28;20481;-78
2021/09/07 03:08:11;;;;;;;9.52;7.10;;;;;;;17.11;55.01;100685.44;5113215;28;20167;-77
2021/09/07 03:10:39;;;;;;;10.48;7.20;;;;;;;17.08;55.23;100683.03;5113576;28;20127;-77
2021/09/07 03:13:05;;;;;;;16.17;8.82;;;;;;;17.03;55.85;100693.03;5111635;28;20402;-77
2021/09/07 03:15:33;;;;;;;10.80;8.07;;;;;;;17.02;56.28;100686.09;5113785;28;20039;-77
2021/09/07 03:18:00;;;;;;;14.13;8.07;;;;;;;16.99;56.31;100681.03;5113019;28;20047;-76
2021/09/07 03:20:28;;;;;;;17.67;7.95;;;;;;;16.96;56.18;100681.25;5112421;28;20060;-77
2021/09/07 03:22:55;;;;;;;9.15;7.15;;;;;;;16.75;56.96;100679.16;5112847;28;20190;-76
2021/09/07 03:25:23;;;;;;;11.18;6.97;;;;;;;16.79;56.82;100684.22;5113216;28;20061;-76
2021/09/07 03:27:50;;;;;;;12.50;8.15;;;;;;;16.75;56.69;100680.94;5112926;28;20036;-77
2021/09/07 03:30:19;;;;;;;12.43;7.65;;;;;;;16.77;56.19;100679.88;5113082;28;20489;-77
2021/09/07 03:32:46;;;;;;;16.25;9.48;;;;;;;16.78;55.94;100678.13;5112643;28;20044;-77
2021/09/07 03:35:15;;;;;;;13.40;7.70;;;;;;;16.78;56.24;100678.13;5112116;28;20040;-77
2021/09/07 03:37:42;;;;;;;13.20;8.10;;;;;;;16.81;56.50;100675.25;5112510;28;20035;-78
2021/09/07 03:40:13;;;;;;;10.25;7.13;;;;;;;16.77;56.77;100682.50;5112305;28;20044;-77
2021/09/07 03:42:41;;;;;;;10.13;6.47;;;;;;;16.63;57.47;100668.59;5112277;28;20071;-78
2021/09/07 03:45:12;;;;;;;10.77;8.35;;;;;;;16.55;57.57;100677.00;5112486;28;20047;-77
2021/09/07 03:47:40;;;;;;;14.10;7.57;;;;;;;16.47;57.69;100671.44;5111408;28;20048;-77
2021/09/07 03:50:10;;;;;;;11.73;7.47;;;;;;;16.51;57.02;100665.00;5112109;28;20100;-77
2021/09/07 03:52:38;;;;;;;10.95;7.03;;;;;;;16.49;57.43;100664.28;5110688;28;20083;-77
2021/09/07 03:55:06;;;;;;;13.52;7.25;;;;;;;16.40;57.59;100667.50;5112638;28;20032;-76
2021/09/07 03:57:34;;;;;;;12.60;7.13;;;;;;;16.32;57.99;100660.16;5112560;28;20058;-76
2021/09/07 04:00:02;;;;;;;9.75;6.38;;;;;;;16.34;58.14;100657.41;5112878;28;20044;-77
2021/09/07 04:02:38;;;;;;;7.20;6.00;;;;;;;16.19;58.60;100665.41;5111403;28;20100;-76
2021/09/07 04:05:07;;;;;;;13.02;6.20;;;;;;;16.16;58.48;100664.75;5112968;28;20093;-77
2021/09/07 04:07:35;;;;;;;8.90;6.38;;;;;;;16.16;58.46;100664.75;5111961;28;20124;-77
2021/09/07 04:10:03;;;;;;;13.82;6.63;;;;;;;16.06;58.57;100669.78;5111116;28;20088;-77
2021/09/07 04:12:31;;;;;;;11.40;6.63;;;;;;;16.09;58.65;100661.69;5112084;28;20039;-76
2021/09/07 04:14:58;;;;;;;10.13;6.40;;;;;;;16.07;58.66;100666.19;5112765;28;20074;-77
2021/09/07 04:17:28;;;;;;;11.48;6.22;;;;;;;16.03;58.69;100669.13;5115704;28;20179;-75
2021/09/07 04:19:55;;;;;;;11.57;6.47;;;;;;;15.92;59.19;100673.31;5116599;28;20040;-75
2021/09/07 04:22:21;;;;;;;9.27;6.50;;;;;;;15.99;59.08;100663.25;5116391;28;20035;-76
2021/09/07 04:24:48;;;;;;;6.90;5.60;;;;;;;15.89;59.15;100667.41;5115544;28;20085;-75
2021/09/07 04:27:15;;;;;;;6.70;5.72;;;;;;;15.83;59.34;100662.56;5116070;28;20035;-75
2021/09/07 04:29:41;;;;;;;10.75;6.28;;;;;;;15.86;58.98;100664.97;5115096;28;20043;-76
2021/09/07 04:32:08;;;;;;;10.27;5.45;;;;;;;16.00;58.54;100670.19;5115792;28;20116;-76
2021/09/07 04:34:35;;;;;;;11.93;6.03;;;;;;;16.09;58.23;100661.69;5109591;28;20474;-76
2021/09/07 04:37:02;;;;;;;11.05;7.47;;;;;;;16.11;58.17;100666.84;5116042;27;20040;-76
2021/09/07 04:39:28;;;;;;;7.70;6.07;;;;;;;16.12;58.02;100661.47;5115401;27;20043;-76
2021/09/07 04:41:55;;;;;;;6.82;4.82;;;;;;;16.12;58.02;100664.09;5115846;28;20036;-76
2021/09/07 04:44:23;;;;;;;8.65;5.70;;;;;;;16.14;57.70;100666.63;5114432;28;20039;-77
2021/09/07 04:46:51;;;;;;;11.52;5.72;;;;;;;16.07;58.25;100668.00;5115697;28;20043;-77
2021/09/07 04:49:18;;;;;;;8.85;5.82;;;;;;;16.15;58.03;100665.72;5115875;28;20482;-77
2021/09/07 04:51:45;;;;;;;11.70;5.90;;;;;;;15.98;58.25;100662.41;5115224;28;20047;-76
2021/09/07 04:54:12;;;;;;;9.50;5.32;;;;;;;16.15;57.84;100663.06;5115757;28;20039;-77
2021/09/07 04:56:39;;;;;;;10.07;5.85;;;;;;;16.28;57.15;100661.28;5115321;28;20493;-77
2021/09/07 04:59:05;;;;;;;7.80;5.10;;;;;;;16.45;56.26;100666.25;5115362;28;20042;-78
2021/09/07 05:01:33;;;;;;;6.82;5.10;;;;;;;16.50;56.63;100668.56;5112125;28;20039;-78
2021/09/07 05:04:00;;;;;;;9.85;5.53;;;;;;;16.82;55.05;100666.41;5111048;28;20038;-79
2021/09/07 05:06:26;;;;;;;10.43;5.72;;;;;;;17.03;54.97;100666.69;5102109;28;20035;-76
2021/09/07 05:08:53;;;;;;;9.93;5.22;;;;;;;17.06;54.29;100666.50;5103015;28;20048;-78
2021/09/07 05:11:20;;;;;;;9.68;5.15;;;;;;;17.23;54.09;100671.41;5106928;28;20044;-76
2021/09/07 05:13:47;;;;;;;6.07;5.30;;;;;;;17.44;53.72;100676.09;5108422;28;20546;-80
2021/09/07 05:16:13;;;;;;;13.70;5.28;;;;;;;17.68;53.16;100681.38;5104322;28;20032;-77
2021/09/07 05:18:40;;;;;;;6.63;4.95;;;;;;;17.81;52.10;100679.59;5102660;28;20044;-77
2021/09/07 05:21:07;;;;;;;10.25;5.13;;;;;;;18.03;51.78;100674.41;5105066;28;20036;-77
2021/09/07 05:23:37;;;;;;;16.65;4.82;;;;;;;18.23;52.07;100675.56;5108820;27;20097;-77
2021/09/07 05:26:04;;;;;;;10.60;4.70;;;;;;;18.47;50.65;100672.00;5111283;27;20045;-78
2021/09/07 05:28:32;;;;;;;9.00;4.93;;;;;;;18.60;50.00;100670.13;5115885;27;20039;-78
2021/09/07 05:31:12;;;;;;;10.23;4.85;;;;;;;18.56;50.53;100668.66;5112003;27;20118;-84
2021/09/07 05:33:39;;;;;;;8.18;4.18;;;;;;;18.81;49.67;100670.31;5111573;27;20040;-82
2021/09/07 05:36:06;;;;;;;6.13;4.78;;;;;;;18.99;48.50;100674.13;5109779;27;20044;-84
2021/09/07 05:38:33;;;;;;;10.98;5.03;;;;;;;19.13;48.71;100675.69;5115229;27;20039;-86
2021/09/07 05:40:59;;;;;;;5.78;4.32;;;;;;;19.19;47.79;100672.56;5115488;28;20043;-85
2021/09/07 05:43:26;;;;;;;7.28;4.60;;;;;;;19.38;47.27;100677.22;5114361;28;20088;-84
2021/09/07 05:45:53;;;;;;;10.35;4.47;;;;;;;19.42;47.65;100680.47;5112591;28;20036;-86
2021/09/07 05:48:20;;;;;;;9.68;5.10;;;;;;;19.79;46.17;100679.19;5112094;28;20495;-88
2021/09/07 05:50:47;;;;;;;7.28;4.40;;;;;;;20.12;46.45;100674.72;5109789;28;20417;-85
2021/09/07 05:53:14;;;;;;;4.95;4.22;;;;;;;20.27;45.66;100678.75;5110189;28;20055;-88
2021/09/07 05:55:41;;;;;;;6.93;4.57;;;;;;;20.29;45.12;100681.25;5110012;28;20043;-85
2021/09/07 05:58:07;;;;;;;7.45;4.18;;;;;;;20.42;44.87;100679.28;5106452;28;20660;-88
2021/09/07 06:00:34;;;;;;;13.65;6.53;;;;;;;20.51;44.46;100683.00;5108028;28;20046;-86
2021/09/07 06:03:04;;;;;;;10.82;6.10;;;;;;;20.66;43.66;100673.72;5106204;28;20047;-86
2021/09/07 06:05:31;;;;;;;6.78;5.03;;;;;;;20.82;43.40;100674.09;5116542;28;20040;-90
2021/09/07 06:07:58;;;;;;;6.63;4.50;;;;;;;20.99;42.94;100679.75;5123619;28;20040;-90
2021/09/07 06:10:25;;;;;;;8.88;5.22;;;;;;;21.02;43.45;100680.31;5122081;28;20050;-91
2021/09/07 06:12:51;;;;;;;8.40;4.93;;;;;;;20.97;43.26;100676.38;5117802;28;20510;-90
2021/09/07 06:15:18;;;;;;;5.25;4.20;;;;;;;21.17;42.99;100683.44;5115879;28;20039;-89
2021/09/07 06:17:45;;;;;;;6.90;5.15;;;;;;;21.07;43.36;100679.91;5120631;28;20054;-90
2021/09/07 06:20:12;;;;;;;11.20;5.85;;;;;;;20.99;44.36;100674.47;5117194;28;20044;-89
2021/09/07 06:22:39;;;;;;;13.05;5.28;;;;;;;21.02;44.73;100682.13;5116804;28;20051;-91
2021/09/07 06:25:06;;;;;;;14.90;6.13;;;;;;;20.78;46.42;100677.16;5105618;28;20044;-91
2021/09/07 06:27:33;;;;;;;8.15;5.95;;;;;;;20.70;47.24;100684.91;5117620;28;20108;-91
2021/09/07 06:30:00;;;;;;;10.80;5.50;;;;;;;20.95;46.85;100678.34;5116540;28;20043;-89
2021/09/07 06:32:27;;;;;;;15.63;6.60;;;;;;;20.91;47.21;100683.91;5118801;28;20046;-91
2021/09/07 06:34:53;;;;;;;8.68;6.50;;;;;;;20.84;47.14;100684.56;5117476;28;20112;-88
2021/09/07 06:37:20;;;;;;;8.35;6.00;;;;;;;21.19;45.42;100690.28;5116808;28;20069;-90
2021/09/07 06:39:48;;;;;;;8.05;6.13;;;;;;;21.05;46.68;100681.88;5098079;28;20044;-90
2021/09/07 06:42:16;;;;;;;11.25;6.00;;;;;;;21.12;46.34;100683.84;5098048;28;20055;-91
2021/09/07 06:44:43;;;;;;;9.40;5.55;;;;;;;21.22;46.17;100691.00;5115558;28;20048;-92
2021/09/07 06:47:10;;;;;;;10.32;5.13;;;;;;;21.10;46.67;100688.44;5116776;28;20412;-90
2021/09/07 06:49:37;;;;;;;5.93;5.32;;;;;;;21.08;46.53;100690.38;5109023;28;20127;-91
2021/09/07 06:52:04;;;;;;;12.45;5.53;;;;;;;21.20;45.72;100699.09;5104521;28;20107;-90
2021/09/07 06:54:31;;;;;;;15.30;6.30;;;;;;;21.30;45.21;100696.47;5115540;28;20047;-90
2021/09/07 06:56:58;;;;;;;11.95;5.97;;;;;;;21.41;44.24;100694.59;5115537;28;20046;-91
2021/09/07 06:59:25;;;;;;;11.15;5.97;;;;;;;21.52;44.51;100696.28;5116869;28;20061;-91
2021/09/07 07:01:52;;;;;;;16.55;5.57;;;;;;;21.37;45.58;100701.13;5115388;28;20065;-89
2021/09/07 07:04:19;;;;;;;12.20;7.43;;;;;;;21.07;46.94;100690.53;5115872;28;20493;-89
2021/09/07 07:06:46;;;;;;;14.57;7.80;;;;;;;21.13;46.91;100697.94;5115223;28;20039;-91
2021/09/07 07:09:15;;;;;;;8.90;6.00;;;;;;;21.05;47.78;100695.97;5115021;28;20051;-91
2021/09/07 07:11:42;;;;;;;24.05;7.13;;;;;;;21.37;47.27;100695.00;5113215;28;20031;-91
2021/09/07 07:14:09;;;;;;;13.75;6.60;;;;;;;21.40;46.56;100702.66;5114451;28;20040;-90
2021/09/07 07:16:36;;;;;;;13.25;6.72;;;;;;;21.55;46.46;100695.16;5112403;28;20475;-90
2021/09/07 07:19:03;;;;;;;12.82;6.22;;;;;;;21.74;46.35;100694.38;5110121;28;20043;-90
2021/09/07 07:21:30;;;;;;;9.48;6.60;;;;;;;21.79;46.26;100700.94;5115229;28;20032;-90
2021/09/07 07:23:57;;;;;;;10.80;9.48;;;;;;;21.88;45.96;100705.41;5115227;28;20036;-87
2021/09/07 07:26:24;;;;;;;10.98;8.70;;;;;;;21.58;46.01;100700.22;5115284;28;20463;-89
2021/09/07 07:28:51;;;;;;;12.73;7.93;;;;;;;21.54;45.83;100704.09;5115630;28;20486;-88
2021/09/07 07:31:18;;;;;;;14.07;7.35;;;;;;;21.97;45.12;100701.91;5115951;28;20055;-88
2021/09/07 07:33:44;;;;;;;9.77;6.78;;;;;;;21.84;45.06;100706.69;5114701;28;20092;-89
2021/09/07 07:36:11;;;;;;;9.88;6.00;;;;;;;22.01;44.65;100702.50;5114699;28;20122;-88
2021/09/07 07:38:38;;;;;;;11.23;6.80;;;;;;;22.39;43.99;100699.00;5114664;28;20057;-89
2021/09/07 07:41:05;;;;;;;10.45;6.63;;;;;;;22.43;43.40;100704.88;5114628;28;20046;-89
2021/09/07 07:43:36;;;;;;;11.40;7.00;;;;;;;22.32;43.36;100708.53;5114551;28;20040;-88
2021/09/07 07:46:03;;;;;;;10.65;6.10;;;;;;;22.57;42.67;100706.25;5114340;28;20087;-89
2021/09/07 07:48:30;;;;;;;21.08;8.15;;;;;;;22.29;42.65;100711.47;5114727;28;20112;-88
2021/09/07 07:50:57;;;;;;;9.55;6.63;;;;;;;22.47;41.66;100706.25;5115750;28;20039;-89
2021/09/07 07:53:24;;;;;;;17.08;6.97;;;;;;;22.46;42.03;100715.22;5118248;28;20043;-88
2021/09/07 07:55:51;;;;;;;15.70;6.47;;;;;;;22.98;41.31;100705.03;5117757;28;20048;-89
2021/09/07 07:58:24;;;;;;;10.27;4.82;;;;;;;22.91;40.68;100711.94;5113882;28;20097;-89
2021/09/07 08:00:51;;;;;;;18.23;6.43;;;;;;;22.79;41.00;100721.84;5118496;28;20044;-88
2021/09/07 08:03:18;;;;;;;12.57;6.18;;;;;;;22.60;41.68;100730.72;5116723;28;20097;-88
2021/09/07 08:05:45;;;;;;;9.90;5.43;;;;;;;22.82;41.21;100721.56;5098358;28;20105;-89
2021/09/07 08:08:12;;;;;;;13.65;5.68;;;;;;;23.28;40.24;100717.25;5105839;28;20122;-88
2021/09/07 08:10:39;;;;;;;13.13;6.13;;;;;;;23.43;39.54;100723.72;5117803;28;20371;-88
2021/09/07 08:13:07;;;;;;;6.93;5.28;;;;;;;23.26;40.11;100719.19;5114090;28;20044;-89
2021/09/07 08:15:35;;;;;;;13.27;5.35;;;;;;;24.03;39.45;100723.25;5098336;28;20040;-89
2021/09/07 08:18:02;;;;;;;6.28;4.70;;;;;;;23.78;38.76;100723.00;5096776;28;20044;-88
2021/09/07 08:20:32;;;;;;;6.85;5.88;;;;;;;23.68;38.36;100732.03;5115343;28;20035;-89
2021/09/07 08:23:00;;;;;;;7.57;5.03;;;;;;;23.82;38.56;100728.03;5117599;28;20040;-89
2021/09/07 08:25:27;;;;;;;10.02;5.07;;;;;;;24.17;37.09;100722.69;5116700;28;20044;-89
2021/09/07 08:27:54;;;;;;;6.63;5.68;;;;;;;23.82;36.90;100725.38;5108566;28;20108;-89
2021/09/07 08:30:21;;;;;;;8.25;4.78;;;;;;;24.06;36.75;100728.25;5110645;28;20036;-88
2021/09/07 08:32:47;;;;;;;6.82;5.50;;;;;;;24.23;36.60;100723.91;5116958;28;20032;-87
2021/09/07 08:35:14;;;;;;;6.13;4.47;;;;;;;23.97;35.98;100731.81;5132624;28;20028;-87
2021/09/07 08:37:42;;;;;;;6.25;4.93;;;;;;;24.39;35.77;100729.41;5139442;28;20047;-89
2021/09/07 08:40:10;;;;;;;7.68;5.53;;;;;;;23.90;36.72;100733.41;5124757;28;20040;-87
2021/09/07 08:42:38;;;;;;;8.57;4.72;;;;;;;24.65;35.61;100728.59;5133407;28;20091;-89
2021/09/07 08:45:08;;;;;;;7.60;4.85;;;;;;;24.66;35.48;100730.25;5118333;28;20043;-88
2021/09/07 08:47:34;;;;;;;10.63;6.43;;;;;;;24.67;35.50;100732.78;5117732;28;20043;-89
2021/09/07 08:50:02;;;;;;;10.05;5.35;;;;;;;24.99;35.65;100732.16;5117433;28;20057;-89
2021/09/07 08:52:30;;;;;;;8.18;5.78;;;;;;;25.40;35.02;100734.19;5115989;28;20130;-90
2021/09/07 08:54:57;;;;;;;12.05;5.18;;;;;;;24.94;35.88;100745.13;5116767;28;20382;-89
2021/09/07 08:57:24;;;;;;;13.23;6.70;;;;;;;24.28;36.20;100738.44;5117208;28;20039;-89
2021/09/07 08:59:56;;;;;;;10.90;5.45;;;;;;;24.82;35.65;100728.56;5118010;28;20039;-90
2021/09/07 09:02:22;;;;;;;14.27;6.25;;;;;;;25.00;35.14;100733.81;5110657;28;20043;-88
2021/09/07 09:04:50;;;;;;;6.70;4.80;;;;;;;24.97;34.94;100735.97;5116870;28;20043;-88
2021/09/07 09:07:26;;;;;;;7.28;4.65;;;;;;;25.06;34.86;100733.22;5116393;28;20039;-89
2021/09/07 09:09:54;;;;;;;5.60;4.93;;;;;;;25.40;34.39;100737.69;5116828;28;20101;-90
2021/09/07 09:12:39;;;;;;;6.82;5.00;;;;;;;25.57;34.14;100742.13;5098191;28;20052;-89
2021/09/07 09:15:21;;;;;;;;;;;;;;;25.26;33.74;100746.34;5109970;28;20384;-89
2021/09/07 09:17:51;;;;;;;10.80;5.72;;;;;;;25.67;33.84;100739.28;5116650;28;19919;-89
2021/09/07 09:20:19;;;;;;;7.47;4.97;;;;;;;25.44;33.56;100730.22;5116664;28;20494;-89
2021/09/07 09:22:51;;;;;;;7.97;4.55;;;;;;;25.35;34.21;100737.34;5115929;28;20044;-89
2021/09/07 09:25:23;;;;;;;5.82;4.50;;;;;;;25.29;33.77;100727.31;5116714;28;20035;-90
2021/09/07 09:27:58;;;;;;;12.73;5.15;;;;;;;25.71;32.98;100734.47;5117316;28;20050;-89
2021/09/07 09:30:26;;;;;;;5.85;5.05;;;;;;;26.50;32.00;100738.47;5116226;28;20043;-87
2021/09/07 09:32:54;;;;;;;4.95;4.28;;;;;;;25.69;32.56;100734.66;5115510;28;20442;-88
2021/09/07 09:35:21;;;;;;;13.25;6.38;;;;;;;26.13;33.23;100726.41;5115672;28;20046;-87
2021/09/07 09:37:54;;;;;;;24.15;7.10;;;;;;;26.55;33.20;100736.13;5115983;28;20035;-86
2021/09/07 09:40:22;;;;;;;13.07;4.90;;;;;;;26.32;32.78;100730.59;5115730;28;20044;-83
2021/09/07 09:42:49;;;;;;;10.23;6.78;;;;;;;25.63;33.63;100734.47;5116443;28;20047;-84
2021/09/07 09:45:17;;;;;;;8.82;4.47;;;;;;;25.84;33.47;100733.03;5115126;28;20036;-85
2021/09/07 09:47:51;;;;;;;6.38;5.30;;;;;;;26.19;32.88;100735.59;5115445;28;20453;-83
2021/09/07 09:50:19;;;;;;;12.40;4.50;;;;;;;26.00;32.55;100726.91;5115376;28;20051;-84
2021/09/07 09:52:47;;;;;;;7.28;4.60;;;;;;;25.70;32.58;100714.13;5115414;27;20047;-86
2021/09/07 09:55:17;;;;;;;5.88;5.00;;;;;;;25.90;32.57;100722.72;5113583;27;20077;-84
2021/09/07 09:57:44;;;;;;;7.30;4.88;;;;;;;27.14;30.48;100713.44;5113601;28;20506;-85
2021/09/07 10:00:16;;;;;;;10.00;5.45;;;;;;;26.56;31.33;100725.25;5113356;28;20067;-83
2021/09/07 10:02:45;;;;;;;11.13;5.60;;;;;;;25.98;32.59;100718.19;5113994;28;20043;-85
2021/09/07 10:05:14;;;;;;;10.43;6.60;;;;;;;26.54;31.73;100721.91;5112946;28;20058;-85
2021/09/07 10:08:01;;;;;;;12.32;5.28;;;;;;;26.77;31.33;100718.53;5115083;28;20038;-84
2021/09/07 10:10:28;;;;;;;8.02;5.28;;;;;;;26.69;31.54;100714.03;5114414;28;20547;-84
2021/09/07 10:12:59;;;;;;;6.32;4.28;;;;;;;26.22;31.42;100717.38;5113068;28;20044;-85
2021/09/07 10:15:37;;;;;;;7.38;5.35;;;;;;;26.43;31.73;100716.91;5110965;28;20043;-84
2021/09/07 10:18:39;;;;;;;14.57;4.90;;;;;;;27.21;30.76;100694.84;5113844;28;20085;-83
2021/09/07 10:26:41;;;;;;;9.63;5.15;;;;;;;25.71;32.78;100715.78;5113644;28;20046;-83
2021/09/07 10:29:09;;;;;;;6.15;5.55;;;;;;;26.31;31.55;100704.84;5114336;28;20163;-79
2021/09/07 10:31:50;;;;;;;8.23;6.43;;;;;;;25.63;33.48;100699.75;5114138;28;20092;-81
2021/09/07 10:34:26;;;;;;;10.20;5.82;;;;;;;26.59;31.73;100694.69;5113713;28;20458;-83
2021/09/07 10:37:03;;;;;;;10.35;5.82;;;;;;;26.56;32.25;100690.47;5113284;28;20100;-81
2021/09/07 10:39:36;;;;;;;10.05;6.57;;;;;;;25.68;33.49;100692.94;5105497;28;20040;-80
2021/09/07 10:42:09;;;;;;;10.60;6.40;;;;;;;26.15;33.14;100692.31;5111560;28;20473;-80
2021/09/07 10:44:37;;;;;;;10.13;5.80;;;;;;;26.43;32.68;100695.53;5111446;28;20039;-81
2021/09/07 10:47:07;;;;;;;8.65;6.53;;;;;;;25.59;34.45;100686.72;5111620;28;20089;-81
2021/09/07 10:49:36;;;;;;;13.38;7.55;;;;;;;26.19;33.68;100679.47;5111652;28;20036;-81
2021/09/07 10:52:12;;;;;;;13.77;6.75;;;;;;;26.40;32.96;100677.13;5112151;28;20507;-81
2021/09/07 10:55:09;;;;;;;8.40;6.68;;;;;;;26.07;33.57;100678.97;5111989;28;20450;-82
2021/09/07 10:57:49;;;;;;;8.77;6.47;;;;;;;25.26;35.42;100672.47;5109824;28;20110;-82
2021/09/07 11:00:16;;;;;;;12.75;6.45;;;;;;;25.88;34.47;100671.28;5110771;28;20039;-84
2021/09/07 11:02:56;;;;;;;11.13;6.95;;;;;;;25.58;35.16;100673.56;5112535;28;20455;-83
2021/09/07 11:05:24;;;;;;;9.45;7.13;;;;;;;25.92;35.01;100670.78;5112609;28;20035;-80
2021/09/07 11:08:16;;;;;;;11.13;8.35;;;;;;;25.43;35.85;100664.50;5111336;28;20051;-82
2021/09/07 11:10:54;;;;;;;14.00;7.97;;;;;;;25.11;36.92;100659.91;5111940;28;20040;-83
2021/09/07 11:13:24;;;;;;;13.68;6.93;;;;;;;25.93;35.60;100656.41;5111794;28;20047;-80
2021/09/07 11:15:53;;;;;;;11.38;5.90;;;;;;;26.26;34.33;100667.09;5111719;28;20397;-80
2021/09/07 11:18:33;;;;;;;9.80;7.07;;;;;;;25.67;35.00;100653.03;5112081;28;20051;-82
2021/09/07 11:21:03;;;;;;;9.50;6.55;;;;;;;25.43;35.21;100654.66;5107902;28;20092;-84
2021/09/07 11:23:34;;;;;;;7.07;6.22;;;;;;;25.93;34.68;100656.41;5108775;28;20119;-83
2021/09/07 11:26:16;;;;;;;16.85;6.70;;;;;;;25.73;34.70;100655.91;5112239;28;20201;-82
2021/09/07 11:28:48;;;;;;;16.08;6.70;;;;;;;25.79;35.81;100644.56;5116904;27;20486;-80
2021/09/07 11:31:15;;;;;;;14.00;7.35;;;;;;;26.07;34.00;100649.59;5107635;27;20038;-79
2021/09/07 11:33:42;;;;;;;9.48;6.57;;;;;;;25.75;34.40;100643.22;5112467;27;20126;-83